Roanoke Regional Woodrum Field
KROA : now visible

Airfield :











YOU CAN JOIN US ON...

 
LOGIN :

Register | Disclaimer

   EN    FR    IT 

 









Legend :    VFR   Marginal VFR   IFR   Intensive IFR   Very Intensive IFR
Visi :
Ceiling :
>= 8 km
>= 3000ft
5 to 8 km
1000 to 3000 ft
1500m to 5 km
500 to 1000 ft
800 to 1500m
200 to 500 ft
< 800m
< 200 ft
Symbols :   Thunderstorms  Fog  Heavy snow  Heavy precipitations  Wind > 20 kt







- Airport Elevation : 1175 ft
- IATA code : ROA


KROA - Roanoke Regional Woodrum Field

CURRENT METAR :
  • 261454Z 27008KT 10SM FEW050 SCT200 29/18 A3014 RMK AO2 SLP192 T02890183 58002

EXPIRED METARs :
  • 261354Z 27007G15KT 10SM FEW150 SCT250 27/18 A3015 RMK AO2 SLP193 T02670183
  • 261254Z 25007KT 10SM CLR 25/18 A3015 RMK AO2 SLP198 T02500183

TAF KROA
Valid from the 26 at 12:00 until the 27 at 12:00 UTC


261147Z 2612/2712 27006KT P6SM SCT050 SCT250
FM261500 27009G18KT P6SM SCT050 SCT250
FM262000 26007KT P6SM VCTS SCT045CB BKN100
FM270300 26004KT P6SM SCT250
KZDC FIR / North America



MET'MAP, your aeronautical weather chart ! - Copyright ORBIFLY December 2007 - Disclaimer

ORBIFLY MET'MAP TEAM :

Programming & Development : Alexandra Zaïnal
Concept & Development : Baudouin d'Aumeries
Co-Development & Prog : Marc-Olivier Méhu
Technical & hardware support : Manuel Goepfert

Contact : metmap@orbifly.com




SOURCES & CREDITS :

   NOAA       Earth
Advisory